Time;durP1;ratioP1;P1;durP2;ratioP2;P2;SDS_P1;SDS_P2;PMS_P1;PMS_P2;Temp;Humidity;BMP_temperature;BMP_pressure;BME280_temperature;BME280_humidity;BME280_pressure;Samples;Min_cycle;Max_cycle;Signal;HPM_P1;HPM_P2
2023/04/30 00:01:52;;;;;;;18.50;11.25;;;;;;;8.66;100.00;102283.13;5016932;28;20045;-71
2023/04/30 00:04:17;;;;;;;17.60;11.20;;;;;;;8.73;100.00;102276.66;5012285;28;20120;-71
2023/04/30 00:06:43;;;;;;;21.48;11.95;;;;;;;8.64;100.00;102274.34;5012625;28;20042;-71
2023/04/30 00:09:08;;;;;;;21.08;10.93;;;;;;;8.62;100.00;102279.69;5018897;28;20037;-71
2023/04/30 00:11:34;;;;;;;16.92;11.38;;;;;;;8.65;100.00;102281.38;5012313;28;20030;-71
2023/04/30 00:14:00;;;;;;;18.17;10.05;;;;;;;8.64;100.00;102288.50;5011343;28;20044;-71
2023/04/30 00:16:25;;;;;;;16.77;9.85;;;;;;;8.59;100.00;102290.44;5010679;28;20130;-70
2023/04/30 00:18:51;;;;;;;17.25;10.52;;;;;;;8.45;100.00;102284.69;5024612;28;20479;-70
2023/04/30 00:21:17;;;;;;;18.42;10.63;;;;;;;8.43;100.00;102291.81;5011467;28;20037;-71
2023/04/30 00:23:42;;;;;;;20.08;9.82;;;;;;;8.26;100.00;102287.84;5013726;28;20835;-71
2023/04/30 00:26:08;;;;;;;22.10;11.93;;;;;;;8.10;100.00;102291.03;5012235;28;20050;-71
2023/04/30 00:28:35;;;;;;;19.30;11.18;;;;;;;8.02;100.00;102294.75;5013381;28;20036;-71
2023/04/30 00:31:01;;;;;;;16.40;10.82;;;;;;;7.91;100.00;102294.22;5013266;28;20034;-72
2023/04/30 00:33:27;;;;;;;18.42;10.60;;;;;;;7.96;100.00;102300.25;5012960;28;20044;-71
2023/04/30 00:35:53;;;;;;;27.95;12.07;;;;;;;8.12;100.00;102289.19;5014360;28;21085;-70
2023/04/30 00:38:18;;;;;;;16.75;10.38;;;;;;;8.05;100.00;102296.47;5011411;28;20038;-70
2023/04/30 00:40:45;;;;;;;19.02;10.88;;;;;;;8.12;100.00;102299.81;5018112;28;20076;-70
2023/04/30 00:43:11;;;;;;;24.35;11.13;;;;;;;8.08;100.00;102293.72;5013222;28;20142;-71
2023/04/30 00:45:37;;;;;;;24.85;12.77;;;;;;;8.08;100.00;102287.53;5021746;28;20067;-71
2023/04/30 00:48:02;;;;;;;19.30;11.98;;;;;;;8.08;100.00;102296.38;5014105;28;20089;-71
2023/04/30 00:50:28;;;;;;;21.67;12.50;;;;;;;7.97;100.00;102291.38;5010716;28;20245;-70
2023/04/30 00:52:54;;;;;;;24.90;11.75;;;;;;;7.44;100.00;102299.06;5012142;28;20121;-70
2023/04/30 00:55:20;;;;;;;17.65;11.70;;;;;;;7.59;100.00;102307.53;5014599;28;20069;-71
2023/04/30 00:57:46;;;;;;;22.48;11.63;;;;;;;7.59;100.00;102311.06;5010746;28;20034;-71
2023/04/30 01:00:12;;;;;;;21.63;12.70;;;;;;;7.57;100.00;102310.22;5012420;28;20132;-71
2023/04/30 01:02:39;;;;;;;25.80;13.00;;;;;;;7.63;100.00;102306.53;5017349;28;20042;-72
2023/04/30 01:05:06;;;;;;;23.75;11.88;;;;;;;7.73;100.00;102300.94;5009722;28;20038;-72
2023/04/30 01:07:37;;;;;;;23.13;13.38;;;;;;;7.72;100.00;102312.44;5010535;28;20149;-72
2023/04/30 01:10:04;;;;;;;27.67;15.53;;;;;;;7.70;100.00;102310.75;5025567;28;20068;-72
2023/04/30 01:13:07;;;;;;;20.55;13.38;;;;;;;7.77;100.00;102309.66;5011085;28;20081;-72
2023/04/30 01:15:53;;;;;;;26.33;13.07;;;;;;;7.75;100.00;102307.06;5007515;28;20104;-72
2023/04/30 01:18:24;;;;;;;21.35;13.38;;;;;;;7.76;100.00;102310.59;5016353;28;20045;-72
2023/04/30 01:20:53;;;;;;;22.25;12.98;;;;;;;7.86;100.00;102305.88;5021477;28;20041;-72
2023/04/30 01:23:31;;;;;;;25.80;12.20;;;;;;;7.75;100.00;102307.06;5009291;28;20037;-71
2023/04/30 01:26:26;;;;;;;22.70;12.98;;;;;;;7.79;100.00;102303.41;5025818;28;20116;-72
2023/04/30 01:28:52;;;;;;;21.88;11.73;;;;;;;7.78;100.00;102311.41;5005155;28;20053;-72
2023/04/30 01:31:18;;;;;;;21.92;12.43;;;;;;;7.70;100.00;102300.16;5012802;28;20042;-71
2023/04/30 01:33:44;;;;;;;21.98;12.63;;;;;;;7.63;100.00;102299.47;5024936;28;20517;-72
2023/04/30 01:36:40;;;;;;;24.45;13.75;;;;;;;7.73;100.00;102300.94;5016466;28;20506;-71
2023/04/30 01:39:21;;;;;;;19.20;13.00;;;;;;;7.73;100.00;102300.94;5010849;28;20113;-71
2023/04/30 01:41:51;;;;;;;24.15;12.52;;;;;;;7.67;100.00;102301.09;5026559;28;20034;-72
2023/04/30 01:44:40;;;;;;;22.05;13.50;;;;;;;7.65;100.00;102299.41;5012300;28;20128;-72
2023/04/30 01:47:25;;;;;;;27.17;13.00;;;;;;;7.61;100.00;102298.59;5030713;28;20042;-72
2023/04/30 01:50:02;;;;;;;19.38;11.25;;;;;;;7.58;100.00;102301.38;5010686;28;20050;-72
2023/04/30 01:52:41;;;;;;;17.45;11.85;;;;;;;7.55;100.00;102298.78;5011674;28;20700;-72
2023/04/30 01:55:11;;;;;;;21.55;10.82;;;;;;;7.49;100.00;102299.81;5012333;28;20163;-72
2023/04/30 01:57:41;;;;;;;12.45;7.82;;;;;;;7.44;100.00;102308.81;5020569;28;20125;-72
2023/04/30 02:00:12;;;;;;;10.93;6.55;;;;;;;7.33;100.00;102306.47;5013182;28;20122;-72
2023/04/30 02:02:40;;;;;;;9.38;6.03;;;;;;;7.27;100.00;102310.13;5009104;28;20121;-72
2023/04/30 02:05:06;;;;;;;8.82;6.20;;;;;;;7.16;100.00;102316.63;5009900;28;20042;-72
2023/04/30 02:07:45;;;;;;;35.20;9.55;;;;;;;7.10;100.00;102317.66;5008719;28;20072;-72
2023/04/30 02:10:11;;;;;;;27.23;10.95;;;;;;;7.12;100.00;102317.59;5008002;28;20045;-72
2023/04/30 02:12:38;;;;;;;43.95;11.20;;;;;;;7.07;100.00;102330.09;5008450;28;20034;-72
2023/04/30 02:15:04;;;;;;;15.55;10.68;;;;;;;7.06;100.00;102328.38;5013309;28;20030;-72
2023/04/30 02:17:31;;;;;;;18.10;11.38;;;;;;;7.14;100.00;102326.41;5008025;28;20040;-72
2023/04/30 02:19:57;;;;;;;20.50;12.20;;;;;;;7.00;100.00;102327.63;5012152;28;20040;-71
2023/04/30 02:22:22;;;;;;;28.92;13.23;;;;;;;6.99;100.00;102328.53;5015503;28;20221;-71
2023/04/30 02:24:48;;;;;;;20.48;11.77;;;;;;;7.03;100.00;102329.34;5008789;28;20918;-71
2023/04/30 02:27:14;;;;;;;24.63;14.15;;;;;;;6.90;100.00;102330.53;5011209;28;20041;-71
2023/04/30 02:29:40;;;;;;;23.27;12.45;;;;;;;6.97;100.00;102332.97;5009355;28;20521;-71
2023/04/30 02:32:06;;;;;;;28.73;15.18;;;;;;;6.75;100.00;102334.41;5009049;28;20042;-70
2023/04/30 02:34:32;;;;;;;25.73;15.02;;;;;;;6.80;100.00;102345.78;5027405;28;20040;-71
2023/04/30 02:36:58;;;;;;;27.67;15.38;;;;;;;6.81;100.00;102339.56;5010108;28;20512;-71
2023/04/30 02:39:23;;;;;;;29.67;15.75;;;;;;;6.89;100.00;102334.97;5006785;28;20057;-71
2023/04/30 02:41:49;;;;;;;26.25;15.02;;;;;;;6.83;100.00;102335.13;5012030;28;20053;-69
2023/04/30 02:44:14;;;;;;;24.65;14.35;;;;;;;6.74;100.00;102337.97;5017999;28;20513;-70
2023/04/30 02:46:40;;;;;;;29.25;15.70;;;;;;;6.81;100.00;102328.09;5008556;28;20045;-71
2023/04/30 02:49:06;;;;;;;25.95;13.77;;;;;;;6.94;100.00;102332.22;5008916;28;20057;-70
2023/04/30 02:51:32;;;;;;;23.17;12.70;;;;;;;6.96;100.00;102328.59;5014082;28;20104;-71
2023/04/30 02:53:57;;;;;;;24.98;13.65;;;;;;;6.75;100.00;102331.75;5021581;28;20068;-71
2023/04/30 02:56:23;;;;;;;22.00;13.90;;;;;;;6.82;100.00;102330.69;5006916;28;20037;-71
2023/04/30 02:58:48;;;;;;;22.42;13.68;;;;;;;6.82;100.00;102327.19;5008794;28;20963;-71
2023/04/30 03:01:14;;;;;;;23.70;13.88;;;;;;;6.88;100.00;102327.94;5009161;28;20030;-70
2023/04/30 03:03:40;;;;;;;28.77;16.20;;;;;;;6.84;100.00;102318.28;5010611;28;20137;-71
2023/04/30 03:06:08;;;;;;;28.38;15.20;;;;;;;6.84;100.00;102317.44;5013686;28;20045;-71
2023/04/30 03:08:34;;;;;;;26.98;15.25;;;;;;;6.82;100.00;102314.78;5025810;28;20123;-70
2023/04/30 03:11:00;;;;;;;24.42;13.68;;;;;;;6.80;100.00;102316.63;5010942;28;20040;-71
2023/04/30 03:13:25;;;;;;;23.17;13.30;;;;;;;6.80;100.00;102319.28;5011592;28;20044;-71
2023/04/30 03:16:03;;;;;;;28.25;14.93;;;;;;;6.72;100.00;102311.47;5009485;28;20045;-71
2023/04/30 03:18:29;;;;;;;22.00;13.80;;;;;;;6.82;100.00;102308.63;5008620;28;20142;-71
2023/04/30 03:20:55;;;;;;;24.98;15.25;;;;;;;6.83;100.00;102308.59;5009284;28;20049;-71
2023/04/30 03:23:21;;;;;;;23.45;13.75;;;;;;;6.87;100.00;102307.59;5024548;28;20041;-71
2023/04/30 03:25:47;;;;;;;18.50;12.32;;;;;;;6.78;100.00;102310.50;5009373;28;20042;-71
2023/04/30 03:28:13;;;;;;;24.88;13.55;;;;;;;6.75;100.00;102316.72;5009620;28;20038;-71
2023/04/30 03:30:39;;;;;;;23.95;13.77;;;;;;;6.39;100.00;102313.16;5016376;28;20961;-71
2023/04/30 03:33:08;;;;;;;19.38;11.88;;;;;;;6.56;100.00;102312.75;5032174;28;20038;-71
2023/04/30 03:35:34;;;;;;;24.65;12.75;;;;;;;6.60;100.00;102319.75;5012404;28;20033;-71
2023/04/30 03:38:00;;;;;;;19.45;11.60;;;;;;;6.57;100.00;102316.28;5020607;28;20735;-73
2023/04/30 03:40:26;;;;;;;21.15;13.05;;;;;;;6.53;100.00;102311.97;5009365;28;20764;-73
2023/04/30 03:42:51;;;;;;;31.10;15.90;;;;;;;6.53;100.00;102311.97;4993437;28;20826;-70
2023/04/30 03:45:18;;;;;;;33.95;17.33;;;;;;;6.43;100.00;102311.31;5011550;28;20499;-71
2023/04/30 03:47:43;;;;;;;31.15;15.57;;;;;;;6.51;100.00;102312.00;5011341;28;20057;-72
2023/04/30 03:50:10;;;;;;;26.25;16.92;;;;;;;6.56;100.00;102307.47;5022635;28;20853;-71
2023/04/30 03:52:36;;;;;;;28.17;16.15;;;;;;;6.58;100.00;102318.91;5011208;28;20030;-72
2023/04/30 03:55:03;;;;;;;26.83;15.82;;;;;;;6.60;100.00;102319.75;5010633;28;20041;-72
2023/04/30 03:57:28;;;;;;;33.95;17.92;;;;;;;6.59;100.00;102317.13;5017981;28;20137;-72
2023/04/30 03:59:54;;;;;;;25.75;14.98;;;;;;;6.52;100.00;102313.72;5024733;28;20038;-72
2023/04/30 04:02:21;;;;;;;29.08;16.05;;;;;;;6.54;100.00;102319.88;5016738;28;20108;-72
2023/04/30 04:04:47;;;;;;;26.52;15.25;;;;;;;6.53;100.00;102314.63;5009600;28;20034;-72
2023/04/30 04:07:13;;;;;;;27.00;16.17;;;;;;;6.46;100.00;102313.88;5018333;28;20046;-72
2023/04/30 04:09:39;;;;;;;27.45;15.68;;;;;;;6.45;100.00;102307.72;4997047;28;20058;-72
2023/04/30 04:12:06;;;;;;;29.63;16.70;;;;;;;6.49;100.00;102312.03;5025872;28;20041;-72
2023/04/30 04:14:32;;;;;;;33.45;17.08;;;;;;;6.40;100.00;102314.88;5024101;28;20546;-72
2023/04/30 04:16:58;;;;;;;32.97;17.75;;;;;;;6.37;100.00;102314.06;5013385;28;20069;-72
2023/04/30 04:19:25;;;;;;;28.45;16.38;;;;;;;6.39;100.00;102312.28;5008908;28;20038;-72
2023/04/30 04:21:51;;;;;;;31.67;17.05;;;;;;;6.54;100.00;102311.94;5023952;28;20099;-71
2023/04/30 04:24:17;;;;;;;31.80;16.65;;;;;;;6.94;100.00;102308.34;5023493;28;20049;-73
2023/04/30 04:26:42;;;;;;;26.45;16.35;;;;;;;7.28;100.00;102308.38;5032458;28;20042;-73
2023/04/30 04:29:09;;;;;;;27.40;15.95;;;;;;;7.68;100.00;102304.59;5025460;28;20038;-72
2023/04/30 04:31:37;;;;;;;28.80;16.15;;;;;;;8.20;100.00;102297.81;5009125;28;20470;-73
2023/04/30 04:34:04;;;;;;;23.38;14.25;;;;;;;8.78;100.00;102296.00;5015348;28;20048;-73
2023/04/30 04:36:32;;;;;;;32.85;16.88;;;;;;;9.39;100.00;102285.06;5028167;28;20069;-72
2023/04/30 04:39:02;;;;;;;28.05;15.02;;;;;;;10.04;100.00;102287.13;5029390;28;20018;-72
2023/04/30 04:41:31;;;;;;;21.45;13.25;;;;;;;10.72;100.00;102290.72;5014561;28;20029;-73
2023/04/30 04:44:02;;;;;;;21.27;14.10;;;;;;;11.26;100.00;102292.03;5008846;28;20749;-72
2023/04/30 04:46:28;;;;;;;22.08;14.63;;;;;;;11.90;100.00;102287.41;5012410;28;20511;-71
2023/04/30 04:48:54;;;;;;;21.30;14.00;;;;;;;12.46;100.00;102284.81;5031342;28;20152;-71
2023/04/30 04:51:20;;;;;;;20.67;14.05;;;;;;;12.93;94.96;102283.34;5008789;28;20065;-73
2023/04/30 04:53:46;;;;;;;17.92;12.93;;;;;;;13.13;90.62;102293.03;5011289;28;20836;-73
2023/04/30 04:56:11;;;;;;;21.15;12.05;;;;;;;12.65;91.05;102293.66;5009370;28;20055;-73
2023/04/30 04:58:37;;;;;;;15.43;11.30;;;;;;;12.70;93.02;102297.88;5013577;28;20593;-73
2023/04/30 05:01:04;;;;;;;16.02;11.60;;;;;;;13.36;88.57;102291.03;5008369;28;20341;-73
2023/04/30 05:03:32;;;;;;;17.70;12.30;;;;;;;13.05;88.37;102287.22;5009853;28;20041;-71
2023/04/30 05:05:58;;;;;;;19.88;13.18;;;;;;;12.58;91.02;102305.63;5009079;28;20064;-74
2023/04/30 05:08:24;;;;;;;21.90;14.13;;;;;;;12.23;93.23;102293.94;4991879;28;20030;-73
2023/04/30 05:10:50;;;;;;;15.18;11.57;;;;;;;12.96;91.50;102293.03;4990293;28;20263;-72
2023/04/30 05:13:15;;;;;;;16.70;12.05;;;;;;;13.67;85.67;102288.47;5009480;28;20038;-72
2023/04/30 05:15:41;;;;;;;17.42;12.48;;;;;;;14.07;80.58;102290.84;5027477;28;20034;-72
2023/04/30 05:18:07;;;;;;;19.58;11.43;;;;;;;13.97;81.45;102290.47;5013388;28;20065;-70
2023/04/30 05:20:33;;;;;;;17.73;11.63;;;;;;;14.84;78.42;102288.25;5012913;28;20034;-73
2023/04/30 05:22:58;;;;;;;17.00;11.35;;;;;;;15.03;73.66;102278.16;5008408;28;20034;-70
2023/04/30 05:25:24;;;;;;;20.02;12.10;;;;;;;15.69;72.65;102281.41;5008007;28;20050;-73
2023/04/30 05:27:50;;;;;;;15.88;11.27;;;;;;;15.22;71.66;102290.53;5008655;28;20303;-73
2023/04/30 05:30:15;;;;;;;14.40;11.07;;;;;;;15.54;70.76;102285.88;5008355;28;20026;-72
2023/04/30 05:32:41;;;;;;;16.60;11.10;;;;;;;15.13;74.09;102291.91;5011564;28;20895;-70
2023/04/30 05:35:07;;;;;;;14.05;10.15;;;;;;;15.14;74.74;102296.34;5019046;28;20832;-71
2023/04/30 05:37:33;;;;;;;15.10;11.65;;;;;;;15.02;73.83;102295.25;5022953;28;20077;-72
2023/04/30 05:39:59;;;;;;;17.17;11.30;;;;;;;14.34;77.42;102299.16;5014250;28;20112;-71
2023/04/30 05:42:24;;;;;;;17.60;11.80;;;;;;;14.53;77.24;102302.56;5019083;28;20041;-70
2023/04/30 05:44:50;;;;;;;17.67;12.27;;;;;;;13.90;79.23;102305.13;5016367;28;20046;-73
2023/04/30 05:47:15;;;;;;;20.15;11.40;;;;;;;13.98;77.87;102305.59;5009301;28;20042;-70
2023/04/30 05:49:41;;;;;;;19.02;11.82;;;;;;;13.60;83.56;102299.59;4975708;28;20141;-71
2023/04/30 05:52:07;;;;;;;15.80;11.00;;;;;;;13.42;83.14;102302.31;5017431;28;20144;-71
2023/04/30 05:54:32;;;;;;;13.30;10.52;;;;;;;13.90;82.93;102294.41;5019086;28;20038;-71
2023/04/30 05:56:58;;;;;;;17.17;11.15;;;;;;;13.82;84.51;102299.34;5013938;28;20036;-71
2023/04/30 05:59:24;;;;;;;12.60;10.45;;;;;;;12.90;87.17;102307.59;5022873;28;20857;-71
2023/04/30 06:01:50;;;;;;;15.80;10.35;;;;;;;13.24;86.03;102303.25;5025512;28;20439;-71
2023/04/30 06:04:16;;;;;;;16.85;9.98;;;;;;;13.70;87.42;102298.16;5018724;28;20034;-72
2023/04/30 06:06:42;;;;;;;18.95;10.95;;;;;;;13.59;85.76;102296.06;5026107;28;20151;-73
2023/04/30 06:09:09;;;;;;;14.80;9.75;;;;;;;13.20;90.08;102302.53;5016404;28;20131;-70
2023/04/30 06:11:36;;;;;;;13.27;9.30;;;;;;;13.55;89.22;102299.84;5020485;28;20412;-74
2023/04/30 06:14:03;;;;;;;14.45;9.43;;;;;;;13.36;89.49;102307.97;5024587;28;20037;-72
2023/04/30 06:16:28;;;;;;;16.45;10.40;;;;;;;13.18;86.98;102312.44;5012889;28;20038;-72
2023/04/30 06:18:54;;;;;;;12.68;8.77;;;;;;;13.31;87.72;102306.50;5025410;28;20701;-72
2023/04/30 06:21:20;;;;;;;14.95;9.43;;;;;;;13.13;88.06;102313.59;5025851;28;20450;-72
2023/04/30 06:23:45;;;;;;;14.32;9.77;;;;;;;13.64;87.26;102307.41;5021881;28;20033;-72
2023/04/30 06:26:13;;;;;;;22.48;9.57;;;;;;;13.62;86.78;102324.53;5025720;28;20506;-72
2023/04/30 06:28:39;;;;;;;21.20;10.07;;;;;;;13.27;86.63;102320.97;5014554;28;20160;-73
2023/04/30 06:31:05;;;;;;;13.95;9.63;;;;;;;13.86;86.27;102317.00;5041515;28;20046;-72
2023/04/30 06:33:30;;;;;;;14.15;8.93;;;;;;;12.86;87.41;102323.91;5014863;28;20042;-72
2023/04/30 06:35:56;;;;;;;15.68;8.95;;;;;;;13.40;87.97;102322.06;5015082;28;20038;-72
2023/04/30 06:38:21;;;;;;;13.80;8.98;;;;;;;13.26;89.13;102319.25;5016530;28;20041;-71
2023/04/30 06:40:47;;;;;;;13.43;8.85;;;;;;;13.91;86.02;102306.91;5025171;28;20036;-72
2023/04/30 06:43:12;;;;;;;12.32;8.57;;;;;;;13.53;86.13;102308.91;5007862;28;20042;-71
2023/04/30 06:45:38;;;;;;;10.55;8.55;;;;;;;13.95;84.75;102303.94;5015547;28;20186;-72
2023/04/30 06:48:04;;;;;;;13.90;9.52;;;;;;;13.76;83.76;102303.22;5023917;28;20137;-72
2023/04/30 06:50:30;;;;;;;13.57;9.05;;;;;;;13.95;87.89;102303.06;5020215;28;20077;-72
2023/04/30 06:52:55;;;;;;;13.05;8.52;;;;;;;13.76;85.32;102305.91;5023770;28;20511;-71
2023/04/30 06:55:21;;;;;;;11.75;8.70;;;;;;;14.17;82.18;102297.41;5040177;28;20053;-71
2023/04/30 06:57:47;;;;;;;14.50;9.07;;;;;;;14.45;81.91;102302.97;5021866;28;20088;-70
2023/04/30 07:00:14;;;;;;;12.20;8.13;;;;;;;14.12;81.72;102307.53;5019016;28;20041;-70
2023/04/30 07:02:40;;;;;;;13.88;8.20;;;;;;;14.35;84.47;102309.78;5020999;28;20037;-71
2023/04/30 07:05:06;;;;;;;14.43;8.52;;;;;;;14.34;84.26;102313.44;5024329;28;20042;-72
2023/04/30 07:07:32;;;;;;;15.60;8.55;;;;;;;14.10;85.05;102323.69;5015863;28;20166;-72
2023/04/30 07:09:58;;;;;;;14.40;8.65;;;;;;;14.16;80.94;102315.34;5018590;28;20041;-71
2023/04/30 07:12:23;;;;;;;14.60;8.40;;;;;;;14.00;81.03;102312.59;5006329;28;20034;-71
2023/04/30 07:14:49;;;;;;;10.95;7.68;;;;;;;14.02;82.88;102319.72;5015877;28;20034;-71
2023/04/30 07:17:15;;;;;;;14.68;8.30;;;;;;;13.95;85.59;102317.34;5020862;28;20802;-71
2023/04/30 07:19:40;;;;;;;12.82;8.23;;;;;;;13.95;82.26;102322.72;5023194;28;20033;-71
2023/04/30 07:22:07;;;;;;;14.73;8.77;;;;;;;13.56;85.45;102322.16;5024997;28;20673;-71
2023/04/30 07:24:33;;;;;;;16.67;9.07;;;;;;;13.45;86.12;102328.94;5004948;28;20034;-73
2023/04/30 07:27:02;;;;;;;13.32;8.60;;;;;;;13.38;87.24;102326.66;5018628;28;20100;-70
2023/04/30 07:29:28;;;;;;;12.88;8.93;;;;;;;13.07;89.07;102328.19;5016004;28;20364;-70
2023/04/30 07:31:55;;;;;;;10.20;7.82;;;;;;;13.44;88.84;102331.69;5020445;28;20121;-71
2023/04/30 07:34:20;;;;;;;14.68;8.55;;;;;;;13.61;86.42;102320.97;5023213;28;20045;-71
2023/04/30 07:36:47;;;;;;;14.30;9.00;;;;;;;13.64;86.99;102325.28;5019566;28;20038;-71
2023/04/30 07:39:13;;;;;;;18.52;9.45;;;;;;;13.99;87.33;102331.47;5017753;28;20066;-71
2023/04/30 07:41:38;;;;;;;14.38;8.73;;;;;;;14.28;83.85;102320.97;5020028;28;20042;-71
2023/04/30 07:44:05;;;;;;;15.15;9.23;;;;;;;14.41;82.33;102319.34;5031630;28;20733;-71
2023/04/30 07:46:30;;;;;;;16.20;9.35;;;;;;;14.92;78.05;102310.16;5014318;28;20048;-70
2023/04/30 07:48:56;;;;;;;15.70;9.60;;;;;;;15.16;78.48;102315.03;5013025;28;20076;-72
2023/04/30 07:51:22;;;;;;;14.32;9.10;;;;;;;15.07;76.25;102318.28;5019407;28;20038;-72
2023/04/30 07:53:47;;;;;;;13.20;8.43;;;;;;;15.16;77.46;102317.72;5022476;28;20042;-72
2023/04/30 07:56:13;;;;;;;15.88;9.48;;;;;;;14.79;77.30;102324.38;5021943;28;20029;-70
2023/04/30 07:58:38;;;;;;;15.70;9.02;;;;;;;14.62;77.70;102318.16;5017247;28;20805;-70
2023/04/30 08:01:05;;;;;;;17.63;8.98;;;;;;;15.00;76.73;102324.00;5020653;28;20036;-71
2023/04/30 08:03:30;;;;;;;17.50;8.93;;;;;;;15.34;78.48;102319.34;5021514;28;20149;-71
2023/04/30 08:05:56;;;;;;;14.48;8.23;;;;;;;15.40;75.01;102321.66;5022736;28;20128;-70
2023/04/30 08:08:22;;;;;;;14.85;9.70;;;;;;;15.74;76.82;102316.94;5015981;28;20042;-71
2023/04/30 08:10:47;;;;;;;19.48;10.45;;;;;;;15.24;76.32;102326.22;5021592;28;20040;-71
2023/04/30 08:13:13;;;;;;;12.15;8.02;;;;;;;15.12;76.20;102325.13;5013898;28;20034;-72
2023/04/30 08:15:39;;;;;;;13.40;8.70;;;;;;;15.03;81.52;102334.59;5019668;28;20462;-72
2023/04/30 08:18:05;;;;;;;17.33;9.50;;;;;;;15.24;78.91;102335.13;5023002;28;20072;-71
2023/04/30 08:20:31;;;;;;;13.85;8.35;;;;;;;14.84;80.84;102343.78;5018649;28;20642;-72
2023/04/30 08:22:57;;;;;;;12.63;8.32;;;;;;;14.69;82.07;102340.16;5021193;28;20029;-72
2023/04/30 08:25:23;;;;;;;16.10;8.85;;;;;;;14.59;82.35;102337.13;5022867;28;20045;-71
2023/04/30 08:27:49;;;;;;;11.88;8.20;;;;;;;14.91;81.37;102331.72;5019455;28;20046;-71
2023/04/30 08:30:15;;;;;;;14.32;8.38;;;;;;;14.43;82.84;102322.81;5015796;28;20041;-71
2023/04/30 08:32:40;;;;;;;19.80;9.73;;;;;;;14.71;83.97;102332.91;5021431;28;20048;-71
2023/04/30 08:35:07;;;;;;;15.80;8.65;;;;;;;14.81;84.10;102326.03;5015113;28;20029;-71
2023/04/30 08:37:32;;;;;;;13.20;8.10;;;;;;;14.45;88.04;102334.31;5018494;28;20107;-71
2023/04/30 08:39:58;;;;;;;17.88;8.90;;;;;;;14.95;82.77;102317.16;5020249;28;20057;-71
2023/04/30 08:42:29;;;;;;;11.88;8.68;;;;;;;14.36;81.42;102332.16;5014803;28;20445;-71
2023/04/30 08:44:55;;;;;;;11.55;8.15;;;;;;;14.81;84.71;102331.41;5017530;28;20056;-71
2023/04/30 08:47:21;;;;;;;12.35;8.32;;;;;;;14.36;84.30;102335.72;5022594;28;20076;-71
2023/04/30 08:49:47;;;;;;;13.18;8.57;;;;;;;14.55;86.51;102342.75;5019330;28;20458;-71
2023/04/30 08:52:13;;;;;;;16.25;10.65;;;;;;;14.53;82.87;102333.94;5020810;28;20029;-71
2023/04/30 08:54:38;;;;;;;15.35;8.57;;;;;;;14.86;89.05;102326.66;5018589;28;20470;-70
2023/04/30 08:57:04;;;;;;;12.98;8.85;;;;;;;14.83;87.55;102331.31;5002767;28;20100;-71
2023/04/30 08:59:30;;;;;;;15.23;9.18;;;;;;;14.59;85.46;102320.16;5019610;28;20420;-71
2023/04/30 09:01:56;;;;;;;11.80;8.45;;;;;;;14.90;87.55;102316.56;5012550;28;20038;-71
2023/04/30 09:04:22;;;;;;;15.05;7.53;;;;;;;14.85;84.84;102319.53;5020065;28;20138;-71
2023/04/30 09:06:47;;;;;;;12.98;8.73;;;;;;;14.90;78.89;102314.75;5021511;28;20045;-72
2023/04/30 09:09:15;;;;;;;10.98;7.90;;;;;;;15.03;83.41;102320.28;5019643;28;20902;-73
2023/04/30 09:11:41;;;;;;;11.43;8.10;;;;;;;14.83;82.51;102309.84;5022559;28;20041;-71
2023/04/30 09:14:08;;;;;;;12.48;7.70;;;;;;;15.18;82.48;102316.69;5018892;28;20088;-72
2023/04/30 09:16:44;;;;;;;15.55;7.95;;;;;;;14.80;76.93;102310.00;5007895;28;20037;-71
2023/04/30 09:19:27;;;;;;;14.43;8.32;;;;;;;14.85;83.99;102311.47;5016464;28;20108;-72
2023/04/30 09:21:53;;;;;;;12.77;8.07;;;;;;;14.77;85.09;102309.22;5035961;28;20437;-73
2023/04/30 09:24:19;;;;;;;11.50;8.57;;;;;;;14.85;84.39;102310.59;5014067;28;20037;-71
2023/04/30 09:26:46;;;;;;;12.82;8.00;;;;;;;14.88;80.97;102316.66;5020040;28;20047;-71
2023/04/30 09:29:12;;;;;;;12.85;7.68;;;;;;;14.66;81.08;102316.16;5023941;28;20574;-71
2023/04/30 09:31:39;;;;;;;13.35;8.65;;;;;;;15.01;81.59;102311.47;5018583;28;20144;-72
2023/04/30 09:34:05;;;;;;;11.35;8.20;;;;;;;14.83;81.07;102305.31;5023358;28;20069;-71
2023/04/30 09:36:32;;;;;;;11.85;8.43;;;;;;;15.02;86.91;102310.50;5018558;28;20029;-71
2023/04/30 09:39:17;;;;;;;11.65;8.63;;;;;;;14.97;81.03;102315.28;5003102;28;20037;-72
2023/04/30 09:41:42;;;;;;;12.48;8.38;;;;;;;14.82;81.87;102313.47;5019478;28;20037;-72
2023/04/30 09:44:28;;;;;;;12.68;8.57;;;;;;;14.99;80.23;102303.47;5022879;28;20467;-72
2023/04/30 09:46:56;;;;;;;14.65;8.52;;;;;;;15.28;82.22;102300.88;5024322;28;20053;-72
2023/04/30 09:49:22;;;;;;;12.43;7.40;;;;;;;15.06;82.24;102308.47;5018024;28;20060;-70
2023/04/30 09:52:00;;;;;;;10.13;7.18;;;;;;;14.96;80.01;102302.78;5015318;28;20123;-71
2023/04/30 09:54:28;;;;;;;11.75;8.00;;;;;;;15.55;81.78;102295.66;5014551;28;20045;-71
2023/04/30 09:56:56;;;;;;;12.55;7.82;;;;;;;15.38;76.64;102299.38;5015441;28;20076;-71
2023/04/30 09:59:29;;;;;;;11.80;7.20;;;;;;;15.27;81.85;102299.16;5015269;28;20165;-71
2023/04/30 10:01:58;;;;;;;19.67;8.77;;;;;;;15.20;78.25;102290.59;4994124;28;20109;-71
2023/04/30 10:04:24;;;;;;;12.45;7.63;;;;;;;15.31;82.45;102298.00;5035661;28;21065;-71
2023/04/30 10:06:53;;;;;;;12.63;7.35;;;;;;;15.71;79.42;102282.16;5037412;28;20042;-72
2023/04/30 10:09:18;;;;;;;8.57;6.25;;;;;;;15.27;77.82;102288.41;5031970;28;20034;-71
2023/04/30 10:11:45;;;;;;;8.52;6.93;;;;;;;15.09;76.85;102281.44;5035064;28;20871;-71
2023/04/30 10:14:12;;;;;;;13.00;7.80;;;;;;;15.16;76.85;102281.00;5035745;28;20032;-72
2023/04/30 10:16:57;;;;;;;11.40;7.38;;;;;;;15.40;76.96;102273.25;5035928;28;20033;-71
2023/04/30 10:19:29;;;;;;;9.35;7.30;;;;;;;15.13;77.66;102278.47;5038419;28;20033;-72
2023/04/30 10:21:55;;;;;;;9.93;7.70;;;;;;;15.30;79.35;102280.16;5040518;28;20072;-72
2023/04/30 10:24:21;;;;;;;11.38;7.63;;;;;;;15.69;76.06;102271.50;5037724;28;20036;-72
2023/04/30 10:26:47;;;;;;;13.63;7.80;;;;;;;15.20;74.92;102277.16;5038880;28;20069;-72
2023/04/30 10:29:14;;;;;;;10.32;6.82;;;;;;;15.69;77.89;102279.59;5034306;28;20162;-73
2023/04/30 10:31:47;;;;;;;11.95;7.13;;;;;;;15.18;74.07;102278.22;5036082;28;20033;-72
2023/04/30 10:34:44;;;;;;;12.60;7.47;;;;;;;15.37;73.50;102262.72;5018686;28;20041;-72
2023/04/30 10:37:48;;;;;;;11.52;7.95;;;;;;;15.12;77.76;102274.06;5037113;28;20131;-73
2023/04/30 10:40:14;;;;;;;11.27;7.97;;;;;;;15.36;79.98;102270.84;5031146;28;20099;-72
2023/04/30 10:42:48;;;;;;;12.25;8.05;;;;;;;15.49;77.92;102271.84;5040989;28;20048;-72
2023/04/30 10:45:15;;;;;;;9.60;6.40;;;;;;;15.38;74.27;102260.88;5017841;28;20045;-72
2023/04/30 10:47:42;;;;;;;9.82;7.10;;;;;;;15.69;75.31;102263.44;5035327;28;20037;-72
2023/04/30 10:50:08;;;;;;;12.00;7.93;;;;;;;15.51;74.64;102256.47;5035892;28;20489;-72
2023/04/30 10:52:36;;;;;;;11.95;8.18;;;;;;;15.75;80.55;102252.28;5023233;28;20083;-70
2023/04/30 10:55:07;;;;;;;13.85;8.07;;;;;;;15.60;77.29;102253.22;5040001;28;20037;-71
2023/04/30 10:57:47;;;;;;;8.88;6.65;;;;;;;15.61;76.11;102251.38;5056573;28;20318;-70
2023/04/30 11:00:13;;;;;;;12.93;7.65;;;;;;;16.02;78.57;102243.47;5038330;28;20116;-70
2023/04/30 11:02:42;;;;;;;10.65;7.25;;;;;;;16.32;73.63;102243.31;5034330;28;20357;-70
2023/04/30 11:05:13;;;;;;;12.18;7.63;;;;;;;16.43;75.51;102235.38;5036272;28;20045;-70
2023/04/30 11:08:07;;;;;;;12.43;6.95;;;;;;;16.53;72.29;102233.81;5035353;28;20041;-70
2023/04/30 11:10:34;;;;;;;11.18;6.47;;;;;;;16.37;75.92;102233.09;5040748;28;20041;-71
2023/04/30 11:13:09;;;;;;;10.40;6.53;;;;;;;16.23;73.75;102230.44;5040661;28;20122;-71
2023/04/30 11:15:44;;;;;;;12.35;6.28;;;;;;;15.97;71.64;102226.75;5038658;28;20395;-71
2023/04/30 11:18:12;;;;;;;8.75;5.75;;;;;;;16.17;73.38;102226.31;5039972;28;20037;-70